Time;durP1;ratioP1;P1;durP2;ratioP2;P2;SDS_P1;SDS_P2;PMS_P1;PMS_P2;Temp;Humidity;BMP_temperature;BMP_pressure;BME280_temperature;BME280_humidity;BME280_pressure;Samples;Min_cycle;Max_cycle;Signal;HPM_P1;HPM_P2
2022/06/04 00:01:25;;;;;;;;;28.50;24.50;;;;;20.04;66.75;101220.22;5109651;27;45223;-65
2022/06/04 00:03:50;;;;;;;;;25.25;23.75;;;;;20.00;67.06;101223.34;5109029;27;45453;-65
2022/06/04 00:06:19;;;;;;;;;27.25;25.00;;;;;19.96;67.08;101230.78;5109244;27;45461;-65
2022/06/04 00:08:44;;;;;;;;;26.50;25.50;;;;;19.93;67.28;101233.75;5104977;27;45569;-66
2022/06/04 00:16:38;;;;;;;;;31.50;26.75;;;;;19.91;67.45;101227.69;5109415;27;45765;-65
2022/06/04 00:19:03;;;;;;;;;27.50;24.50;;;;;19.92;67.18;101229.38;5108305;27;46091;-64
2022/06/04 00:21:29;;;;;;;;;29.00;24.75;;;;;19.95;67.45;101230.91;5104149;27;45763;-62
2022/06/04 00:23:54;;;;;;;;;25.50;24.25;;;;;19.95;67.14;101231.75;5111018;27;45485;-65
2022/06/04 00:26:20;;;;;;;;;27.25;24.75;;;;;19.93;67.54;101217.69;5112023;27;45423;-63
2022/06/04 00:28:46;;;;;;;;;24.25;22.50;;;;;19.92;67.01;101221.34;5109212;27;45475;-63
2022/06/04 00:31:12;;;;;;;;;28.25;27.75;;;;;19.87;67.49;101223.59;5089906;27;45337;-63
2022/06/04 00:33:39;;;;;;;;;30.50;30.00;;;;;19.86;67.48;101232.59;5109086;27;45393;-62
2022/06/04 00:36:05;;;;;;;;;31.50;27.75;;;;;19.86;67.54;101227.25;5103966;27;45404;-62
2022/06/04 00:38:32;;;;;;;;;23.50;23.50;;;;;19.86;67.24;101234.44;5111182;27;45433;-63
2022/06/04 00:41:25;;;;;;;;;25.75;25.25;;;;;19.86;67.43;101229.94;5108817;27;45405;-64
2022/06/04 00:44:02;;;;;;;;;29.50;26.50;;;;;19.85;67.19;101224.72;5102448;27;45336;-64
2022/06/04 00:46:39;;;;;;;;;29.25;27.00;;;;;19.85;67.30;101219.38;5100731;27;45435;-65
2022/06/04 00:49:06;;;;;;;;;27.25;24.75;;;;;19.82;67.04;101217.81;5101558;27;45311;-65
2022/06/04 00:51:31;;;;;;;;;31.00;28.50;;;;;19.79;67.51;101202.06;5101451;27;45181;-65
2022/06/04 00:53:58;;;;;;;;;30.75;29.25;;;;;19.75;67.38;101192.63;5102038;27;45201;-64
2022/06/04 00:56:57;;;;;;;;;30.00;23.75;;;;;19.74;67.14;101193.59;5088853;27;45291;-65
2022/06/04 00:59:42;;;;;;;;;31.25;26.50;;;;;19.72;67.15;101185.72;5107317;27;46043;-64
2022/06/04 01:02:28;;;;;;;;;27.50;26.75;;;;;19.72;67.52;101180.38;5108360;27;45376;-65
2022/06/04 01:05:18;;;;;;;;;25.75;23.75;;;;;19.70;67.55;101189.53;5106690;27;45306;-64
2022/06/04 01:07:58;;;;;;;;;25.75;24.25;;;;;19.68;67.14;101192.34;5095029;27;45273;-65
2022/06/04 01:10:30;;;;;;;;;29.25;27.00;;;;;19.67;67.25;101185.31;5081067;27;45323;-65
2022/06/04 01:13:27;;;;;;;;;31.00;26.00;;;;;19.67;67.24;101184.44;5081165;28;45332;-65
2022/06/04 01:16:17;;;;;;;;;30.00;27.50;;;;;19.64;67.14;101176.72;5081650;28;45469;-65
2022/06/04 01:19:01;;;;;;;;;37.50;33.25;;;;;19.62;67.54;101176.00;5089250;27;45200;-64
2022/06/04 01:22:01;;;;;;;;;31.50;28.00;;;;;19.60;67.58;101172.66;5101307;27;45773;-64
2022/06/04 01:24:45;;;;;;;;;26.00;25.25;;;;;19.59;67.45;101173.59;5101918;27;45511;-66
2022/06/04 01:27:28;;;;;;;;;37.25;31.00;;;;;19.58;67.55;101169.25;5105536;27;45408;-64
2022/06/04 01:30:09;;;;;;;;;32.50;29.00;;;;;19.57;67.58;101176.41;5105700;27;45157;-64
2022/06/04 01:32:53;;;;;;;;;36.25;32.50;;;;;19.55;67.06;101169.50;5104832;27;45397;-64
2022/06/04 01:35:39;;;;;;;;;42.50;33.00;;;;;19.51;67.38;101150.22;5103556;27;45484;-64
2022/06/04 01:38:11;;;;;;;;;34.75;32.00;;;;;19.53;67.67;101150.94;5105041;27;45315;-64
2022/06/04 01:41:07;;;;;;;;;38.00;33.00;;;;;19.55;67.56;101150.78;5104851;27;45409;-64
2022/06/04 01:43:42;;;;;;;;;30.75;30.00;;;;;19.55;67.17;101148.97;5105042;27;45414;-64
2022/06/04 01:46:31;;;;;;;;;36.00;29.50;;;;;19.56;67.65;101156.00;5105078;27;45325;-64
2022/06/04 01:49:02;;;;;;;;;39.25;32.75;;;;;19.52;67.60;101163.47;5105034;27;45414;-64
2022/06/04 01:51:33;;;;;;;;;33.00;30.00;;;;;19.54;67.86;101174.00;5104680;27;45332;-64
2022/06/04 01:54:07;;;;;;;;;36.00;32.00;;;;;19.53;67.48;101156.28;5104704;27;45468;-64
2022/06/04 01:56:43;;;;;;;;;33.25;30.75;;;;;19.54;67.55;101144.59;5105053;27;45227;-64
2022/06/04 01:59:26;;;;;;;;;37.75;32.00;;;;;19.55;67.65;101138.28;5104852;27;45382;-64
2022/06/04 02:01:56;;;;;;;;;33.50;30.75;;;;;19.54;67.69;101131.25;5104747;27;45308;-63
2022/06/04 02:04:28;;;;;;;;;30.00;28.25;;;;;19.52;67.80;101154.59;5104446;27;46168;-64
2022/06/04 02:09:48;;;;;;;;;39.00;32.75;;;;;19.50;67.54;101157.38;5104600;27;45369;-64
2022/06/04 02:12:14;;;;;;;;;43.50;35.75;;;;;19.48;67.85;101158.50;5104598;27;45449;-65
2022/06/04 02:14:43;;;;;;;;;44.50;35.00;;;;;19.46;67.67;101163.16;5104307;27;46586;-65
2022/06/04 02:17:14;;;;;;;;;48.75;36.75;;;;;19.46;67.35;101157.81;5104526;27;45312;-65
2022/06/04 02:19:41;;;;;;;;;49.50;40.00;;;;;19.43;67.45;101164.28;5104517;27;45311;-65
2022/06/04 02:22:09;;;;;;;;;45.75;37.75;;;;;19.42;67.58;101157.22;5104570;27;45484;-65
2022/06/04 02:24:35;;;;;;;;;49.00;41.25;;;;;19.40;67.14;101167.22;5104165;27;45244;-65
2022/06/04 02:27:01;;;;;;;;;49.00;38.50;;;;;19.42;67.90;101169.75;5104252;27;45348;-65
2022/06/04 02:29:28;;;;;;;;;48.50;39.00;;;;;19.42;67.32;101167.91;5104299;27;45446;-65
2022/06/04 02:32:15;;;;;;;;;45.00;37.25;;;;;19.43;67.75;101166.97;5104383;27;45243;-64
2022/06/04 02:35:03;;;;;;;;;44.50;37.00;;;;;19.43;67.60;101163.41;5103725;27;45352;-65
2022/06/04 02:37:53;;;;;;;;;45.00;36.25;;;;;19.43;67.81;101139.38;5102937;27;45349;-65
2022/06/04 02:40:24;;;;;;;;;46.00;38.00;;;;;19.44;67.24;101122.38;5103956;27;45212;-65
2022/06/04 02:42:57;;;;;;;;;43.25;36.00;;;;;19.43;67.82;101126.00;5104095;27;45380;-65
2022/06/04 02:45:33;;;;;;;;;42.50;36.00;;;;;19.44;67.51;101130.41;5103919;27;45446;-65
2022/06/04 02:48:06;;;;;;;;;34.50;30.00;;;;;19.43;67.71;101132.22;5085549;27;45367;-65
2022/06/04 02:50:42;;;;;;;;;34.50;32.00;;;;;19.44;67.51;101135.75;5103588;27;45248;-65
2022/06/04 02:53:09;;;;;;;;;32.75;30.00;;;;;19.44;67.60;101147.28;5103990;27;45470;-65
2022/06/04 02:56:03;;;;;;;;;32.00;30.00;;;;;19.44;67.77;101130.41;5103400;27;45441;-65
2022/06/04 02:58:31;;;;;;;;;28.00;25.00;;;;;19.43;68.07;101126.88;5100735;27;45373;-65
2022/06/04 03:00:58;;;;;;;;;33.25;29.00;;;;;19.42;68.01;101129.66;5103799;27;45448;-65
2022/06/04 03:03:24;;;;;;;;;31.00;28.25;;;;;19.44;67.60;101122.38;5103873;27;45433;-65
2022/06/04 03:05:56;;;;;;;;;29.25;28.50;;;;;19.45;67.97;101108.03;5103292;27;45526;-65
2022/06/04 03:08:22;;;;;;;;;32.25;29.25;;;;;19.47;67.94;101108.72;5103534;27;45472;-65
2022/06/04 03:10:49;;;;;;;;;36.50;30.00;;;;;19.49;67.56;101109.44;5103443;27;45237;-65
2022/06/04 03:13:15;;;;;;;;;30.50;30.00;;;;;19.48;67.69;101110.41;5103631;27;45485;-65
2022/06/04 03:15:40;;;;;;;;;32.50;30.25;;;;;19.49;67.93;101101.41;5103459;27;45569;-65
2022/06/04 03:18:07;;;;;;;;;33.50;29.75;;;;;19.47;68.08;101098.88;5103467;27;45404;-65
2022/06/04 03:20:33;;;;;;;;;35.00;28.75;;;;;19.43;67.91;101105.50;5103338;27;45370;-65
2022/06/04 03:22:58;;;;;;;;;35.50;31.00;;;;;19.43;67.55;101100.16;5103517;27;45440;-65
2022/06/04 03:25:23;;;;;;;;;36.00;27.25;;;;;19.43;67.73;101088.59;5103172;27;45311;-65
2022/06/04 03:27:49;;;;;;;;;31.25;27.75;;;;;19.40;67.92;101081.72;5103416;27;45302;-65
2022/06/04 03:30:15;;;;;;;;;35.50;27.25;;;;;19.39;68.04;101084.53;5103511;27;45488;-65
2022/06/04 03:32:41;;;;;;;;;30.75;28.75;;;;;19.39;67.66;101093.41;5103138;27;45223;-65
2022/06/04 03:35:07;;;;;;;;;27.50;27.25;;;;;19.39;68.10;101095.22;5102933;27;46027;-65
2022/06/04 03:37:34;;;;;;;;;35.75;32.50;;;;;19.37;67.84;101084.69;5103083;27;45319;-65
2022/06/04 03:40:00;;;;;;;;;31.50;26.75;;;;;19.38;67.66;101099.72;5103089;27;45343;-65
2022/06/04 03:42:26;;;;;;;;;30.75;28.25;;;;;19.38;68.33;101098.88;5103188;27;45314;-64
2022/06/04 03:44:51;;;;;;;;;28.00;27.25;;;;;19.38;67.95;101097.06;5102945;27;45964;-65
2022/06/04 03:47:18;;;;;;;;;33.00;29.75;;;;;19.41;68.25;101102.09;5102764;27;45407;-64
2022/06/04 03:49:45;;;;;;;;;36.25;30.00;;;;;19.40;68.04;101102.25;5102679;27;45326;-65
2022/06/04 03:52:11;;;;;;;;;32.75;29.25;;;;;19.40;67.84;101112.94;5102808;27;45255;-65
2022/06/04 03:54:53;;;;;;;;;28.50;26.50;;;;;19.36;68.13;101119.56;5102541;27;45417;-64
2022/06/04 03:57:38;;;;;;;;;32.25;27.75;;;;;19.31;67.92;101127.13;5102701;27;45538;-64
2022/06/04 04:00:19;;;;;;;;;30.00;27.50;;;;;19.31;68.39;101136.00;5102886;27;45350;-65
2022/06/04 04:02:51;;;;;;;;;28.25;26.75;;;;;19.33;68.32;101133.19;5102927;27;45624;-65
2022/06/04 04:05:29;;;;;;;;;23.25;22.50;;;;;19.33;68.14;101134.00;5102433;27;45365;-65
2022/06/04 04:07:56;;;;;;;;;29.25;26.00;;;;;19.32;68.18;101136.84;5102686;27;45460;-65
2022/06/04 04:10:23;;;;;;;;;28.25;26.25;;;;;19.32;67.92;101127.00;5102587;27;45252;-65
2022/06/04 04:12:49;;;;;;;;;29.75;25.00;;;;;19.30;68.35;101139.66;5102827;27;45332;-64
2022/06/04 04:15:15;;;;;;;;;30.25;27.50;;;;;19.31;68.08;101149.34;5102254;27;45322;-66
2022/06/04 04:17:42;;;;;;;;;30.00;27.75;;;;;19.33;68.25;101159.88;5102621;27;45405;-65
2022/06/04 04:20:12;;;;;;;;;28.00;25.50;;;;;19.33;67.94;101163.41;5102307;27;45327;-65
2022/06/04 04:22:38;;;;;;;;;28.00;26.75;;;;;19.30;67.98;101165.50;5102389;27;45248;-65
2022/06/04 04:25:05;;;;;;;;;27.00;25.25;;;;;19.30;68.25;101173.53;5102485;27;45336;-65
2022/06/04 04:27:31;;;;;;;;;25.00;23.50;;;;;19.28;68.35;101187.03;5102347;27;45235;-65
2022/06/04 04:29:56;;;;;;;;;29.50;26.50;;;;;19.28;68.28;101210.22;5102586;27;45279;-65
2022/06/04 04:32:22;;;;;;;;;26.25;24.75;;;;;19.31;68.22;101215.28;5102049;27;45639;-65
2022/06/04 04:34:48;;;;;;;;;28.00;25.00;;;;;19.34;68.25;101210.50;5101851;27;45413;-65
2022/06/04 04:37:13;;;;;;;;;24.25;22.75;;;;;19.35;68.30;101188.16;5102082;27;45244;-65
2022/06/04 04:39:39;;;;;;;;;25.25;23.75;;;;;19.35;68.06;101188.16;5102559;27;45270;-65
2022/06/04 04:42:05;;;;;;;;;24.50;22.50;;;;;19.34;68.21;101204.31;5102144;27;45226;-65
2022/06/04 04:44:30;;;;;;;;;27.00;23.00;;;;;19.35;68.05;101209.50;5100789;27;47154;-65
2022/06/04 04:46:55;;;;;;;;;28.25;26.00;;;;;19.36;68.30;101202.38;5080431;28;45265;-66
2022/06/04 04:49:21;;;;;;;;;24.75;23.25;;;;;19.32;68.38;101196.44;5101637;27;45308;-65
2022/06/04 04:51:48;;;;;;;;;25.00;23.25;;;;;19.34;68.00;101207.00;5101894;27;45397;-65
2022/06/04 04:54:14;;;;;;;;;27.50;26.50;;;;;19.35;68.59;101222.88;5101751;27;46303;-65
2022/06/04 04:56:40;;;;;;;;;28.25;25.00;;;;;19.39;68.50;101220.78;5101566;27;45482;-65
2022/06/04 04:59:06;;;;;;;;;24.00;23.75;;;;;19.38;68.53;101227.13;5101104;27;45268;-65
2022/06/04 05:01:31;;;;;;;;;29.25;24.00;;;;;19.35;68.54;101230.88;5101937;27;45640;-65
2022/06/04 05:03:58;;;;;;;;;30.00;28.75;;;;;19.35;68.44;101209.50;5101625;27;46418;-65
2022/06/04 05:06:24;;;;;;;;;25.25;22.75;;;;;19.36;68.57;101221.06;5101461;27;45297;-65
2022/06/04 05:08:53;;;;;;;;;23.50;22.75;;;;;19.39;68.32;101235.00;5101998;27;45632;-65
2022/06/04 05:11:21;;;;;;;;;26.25;25.00;;;;;19.43;68.39;101222.19;5101740;27;45325;-65
2022/06/04 05:13:49;;;;;;;;;28.00;24.75;;;;;19.47;68.94;101212.94;5101593;27;45285;-65
2022/06/04 05:16:19;;;;;;;;;25.50;23.00;;;;;19.50;68.33;101201.97;5101558;27;45315;-65
2022/06/04 05:18:46;;;;;;;;;24.50;22.50;;;;;19.50;68.59;101204.63;5101669;27;45179;-65
2022/06/04 05:21:19;;;;;;;;;25.75;24.75;;;;;19.53;68.75;101209.72;5083017;27;45373;-65
2022/06/04 05:23:45;;;;;;;;;26.00;25.00;;;;;19.58;68.69;101222.69;5101786;27;46117;-65
2022/06/04 05:26:10;;;;;;;;;24.75;23.00;;;;;19.59;68.68;101206.53;5101403;27;45829;-65
2022/06/04 05:28:36;;;;;;;;;25.00;24.25;;;;;19.59;68.79;101198.53;5101953;27;45204;-65
2022/06/04 05:31:02;;;;;;;;;22.25;21.00;;;;;19.61;68.16;101199.22;5101398;27;45214;-65
2022/06/04 05:33:28;;;;;;;;;27.00;25.50;;;;;19.62;68.30;101176.00;5101507;27;45455;-65
2022/06/04 05:35:54;;;;;;;;;30.00;27.00;;;;;19.62;68.24;101165.31;5101038;27;45316;-65
2022/06/04 05:38:20;;;;;;;;;27.25;25.25;;;;;19.60;68.48;101162.78;5101512;27;45419;-65
2022/06/04 05:40:45;;;;;;;;;31.25;25.25;;;;;19.61;68.60;101175.16;5101031;27;45658;-64
2022/06/04 05:43:11;;;;;;;;;21.75;20.25;;;;;19.64;68.16;101184.72;5101428;27;45902;-64
2022/06/04 05:45:36;;;;;;;;;28.00;23.75;;;;;19.65;68.38;101192.59;5100991;27;45275;-65
2022/06/04 05:48:02;;;;;;;;;24.00;21.75;;;;;19.69;68.37;101187.84;5101444;27;45347;-65
2022/06/04 05:50:27;;;;;;;;;30.00;26.00;;;;;19.72;68.40;101176.84;5082606;27;45275;-66
2022/06/04 05:52:53;;;;;;;;;25.25;24.25;;;;;19.71;68.05;101180.53;5101050;27;46016;-66
2022/06/04 05:55:18;;;;;;;;;26.50;23.00;;;;;19.72;68.29;101187.56;5100741;27;45425;-65
2022/06/04 05:57:44;;;;;;;;;24.75;24.00;;;;;19.75;68.08;101195.31;5101331;27;45399;-65
2022/06/04 06:00:09;;;;;;;;;28.50;22.75;;;;;19.76;68.27;101197.00;5101164;27;45355;-65
2022/06/04 06:02:36;;;;;;;;;22.00;21.50;;;;;19.76;68.21;101205.88;5101137;27;45336;-65
2022/06/04 06:05:03;;;;;;;;;21.50;20.75;;;;;19.76;68.22;101213.88;5100835;27;45489;-65
2022/06/04 06:07:28;;;;;;;;;29.00;24.50;;;;;19.80;68.43;101234.00;5101278;27;45528;-65
2022/06/04 06:09:54;;;;;;;;;30.50;25.00;;;;;19.80;68.44;101239.34;5100971;27;45377;-65
2022/06/04 06:12:20;;;;;;;;;23.50;21.75;;;;;19.78;68.73;101246.66;5104304;27;45165;-65
2022/06/04 06:14:45;;;;;;;;;25.75;22.75;;;;;19.76;68.62;101264.69;5104425;27;45426;-65
2022/06/04 06:17:11;;;;;;;;;21.00;21.00;;;;;19.76;68.23;101264.69;5104643;27;45294;-65
2022/06/04 06:19:36;;;;;;;;;31.25;23.50;;;;;19.78;68.27;101265.38;5104007;27;45393;-65
2022/06/04 06:22:02;;;;;;;;;23.25;21.50;;;;;19.80;68.17;101252.72;5104380;27;46040;-65
2022/06/04 06:24:27;;;;;;;;;24.75;21.00;;;;;19.82;68.14;101257.06;5104270;27;45279;-65
2022/06/04 06:26:57;;;;;;;;;23.25;22.75;;;;;19.87;68.66;101260.19;5104384;27;45318;-65
2022/06/04 06:29:26;;;;;;;;;23.00;20.75;;;;;19.87;68.25;101278.91;5104356;27;45166;-65
2022/06/04 06:31:52;;;;;;;;;24.75;23.25;;;;;19.87;68.43;101279.75;5103957;27;46306;-65
2022/06/04 06:34:20;;;;;;;;;25.25;22.75;;;;;19.89;68.17;101296.47;5104037;27;45470;-65
2022/06/04 06:36:46;;;;;;;;;24.75;22.50;;;;;19.91;68.59;101291.88;5104070;27;45238;-65
2022/06/04 06:39:11;;;;;;;;;23.00;19.75;;;;;19.93;68.64;101291.72;5104093;27;45242;-66
2022/06/04 06:41:37;;;;;;;;;28.50;23.75;;;;;19.91;68.43;101302.56;5103872;27;45999;-65
2022/06/04 06:44:03;;;;;;;;;23.50;19.00;;;;;19.93;68.56;101302.41;5103950;27;45161;-65
2022/06/04 06:46:32;;;;;;;;;24.25;21.00;;;;;19.92;68.68;101303.41;5104150;27;45212;-65
2022/06/04 06:49:03;;;;;;;;;22.25;21.25;;;;;19.91;68.69;101297.22;5103721;27;45265;-65
2022/06/04 06:51:34;;;;;;;;;27.50;23.50;;;;;19.91;68.15;101278.50;5098812;27;46199;-65
2022/06/04 06:53:59;;;;;;;;;23.50;22.75;;;;;19.88;68.36;101284.09;5099724;27;45464;-65
2022/06/04 06:56:32;;;;;;;;;24.00;21.50;;;;;19.88;68.55;101300.16;5096403;27;45509;-65
2022/06/04 06:59:00;;;;;;;;;24.00;22.75;;;;;19.89;68.12;101292.97;5088755;27;45368;-64
2022/06/04 07:01:26;;;;;;;;;23.50;23.25;;;;;19.88;68.53;101281.44;5099176;27;45238;-65
2022/06/04 07:03:53;;;;;;;;;27.00;24.50;;;;;19.88;68.19;101278.75;5091823;27;45150;-67
2022/06/04 07:06:37;;;;;;;;;24.50;22.00;;;;;19.87;68.38;101269.03;5085856;27;46309;-64
2022/06/04 07:09:07;;;;;;;;;22.00;20.25;;;;;19.83;68.46;101254.28;5093689;27;45580;-64
2022/06/04 07:11:33;;;;;;;;;25.00;21.00;;;;;19.85;68.82;101246.13;5097342;27;45392;-65
2022/06/04 07:13:59;;;;;;;;;30.00;23.00;;;;;19.85;68.78;101252.31;5083356;27;45355;-62
2022/06/04 07:16:25;;;;;;;;;22.50;22.00;;;;;19.85;68.42;101246.97;5083581;27;45303;-64
2022/06/04 07:18:51;;;;;;;;;29.50;25.00;;;;;19.88;68.73;101238.66;5065141;27;45274;-62
2022/06/04 07:21:16;;;;;;;;;22.75;20.50;;;;;19.91;68.95;101237.53;5089337;27;45905;-63
2022/06/04 07:23:42;;;;;;;;;24.25;23.50;;;;;19.91;69.00;101249.09;5082997;27;45215;-63
2022/06/04 07:26:08;;;;;;;;;24.00;24.00;;;;;19.94;69.04;101242.59;5094448;27;46732;-63
2022/06/04 07:28:36;;;;;;;;;27.75;24.00;;;;;19.95;69.00;101242.47;5083783;27;45410;-63
2022/06/04 07:31:04;;;;;;;;;28.25;24.00;;;;;19.95;68.92;101250.47;5088539;27;45457;-63
2022/06/04 07:33:30;;;;;;;;;25.50;24.75;;;;;20.00;69.02;101271.47;5086086;27;45327;-68
2022/06/04 07:35:56;;;;;;;;;29.50;27.00;;;;;20.02;69.66;101289.06;5093984;27;45317;-63
2022/06/04 07:38:22;;;;;;;;;23.75;23.75;;;;;20.06;69.36;101293.16;5100682;27;45382;-66
2022/06/04 07:40:47;;;;;;;;;27.50;26.00;;;;;20.08;69.49;101291.19;5097674;27;46162;-59
2022/06/04 07:43:13;;;;;;;;;25.50;23.75;;;;;20.11;69.18;101299.91;5105911;27;45424;-59
2022/06/04 07:45:40;;;;;;;;;23.50;19.75;;;;;20.12;69.26;101297.09;5097621;27;45261;-59
2022/06/04 07:48:06;;;;;;;;;29.00;26.00;;;;;20.11;69.51;101282.03;5100553;27;45524;-51
2022/06/04 07:50:33;;;;;;;;;31.00;29.50;;;;;20.10;69.31;101283.00;5096938;27;45450;-57
2022/06/04 07:52:58;;;;;;;;;29.75;25.50;;;;;20.06;69.43;101271.75;5096016;27;45323;-61
2022/06/04 07:55:25;;;;;;;;;29.25;27.50;;;;;20.04;69.48;101297.78;5095526;27;45536;-61
2022/06/04 07:57:50;;;;;;;;;29.25;28.50;;;;;20.07;69.89;101302.03;5090919;27;45274;-60
2022/06/04 08:00:16;;;;;;;;;28.25;26.00;;;;;20.08;69.66;101301.03;5087250;27;45673;-62
2022/06/04 08:02:42;;;;;;;;;27.00;26.00;;;;;20.09;69.62;101305.41;5096712;27;45207;-61
2022/06/04 08:05:09;;;;;;;;;34.00;30.00;;;;;20.12;69.70;101313.13;5091444;27;45178;-61
2022/06/04 08:07:36;;;;;;;;;35.50;29.75;;;;;20.14;69.83;101310.31;5096135;27;45526;-60
2022/06/04 08:10:03;;;;;;;;;30.25;28.75;;;;;20.12;69.85;101302.44;5081726;28;45558;-61
2022/06/04 08:12:34;;;;;;;;;29.50;25.50;;;;;20.11;70.37;101276.69;5081856;27;45371;-61
2022/06/04 08:15:00;;;;;;;;;29.25;27.75;;;;;20.11;69.95;101265.97;5098163;27;45330;-61
2022/06/04 08:17:26;;;;;;;;;31.25;27.00;;;;;20.09;69.83;101249.22;5101675;27;45626;-61
2022/06/04 08:19:52;;;;;;;;;28.75;26.25;;;;;20.08;69.91;101245.72;5101536;27;45357;-61
2022/06/04 08:22:18;;;;;;;;;32.75;29.50;;;;;20.12;69.96;101278.38;5110275;27;45381;-61
2022/06/04 08:24:47;;;;;;;;;32.25;30.00;;;;;20.20;70.31;101278.50;5102544;27;45594;-61
2022/06/04 08:27:12;;;;;;;;;36.50;30.00;;;;;20.24;70.30;101242.47;5102103;27;45417;-62
2022/06/04 08:29:38;;;;;;;;;32.25;29.75;;;;;20.29;70.35;101264.28;5101903;27;46130;-66
2022/06/04 08:32:05;;;;;;;;;32.50;29.00;;;;;20.36;70.62;101286.81;5091504;27;45386;-65
2022/06/04 08:34:31;;;;;;;;;31.00;26.50;;;;;20.46;70.36;101302.06;5100174;27;45417;-66
2022/06/04 08:36:57;;;;;;;;;36.25;30.50;;;;;20.53;70.36;101295.16;5101850;27;45326;-66
2022/06/04 08:39:24;;;;;;;;;30.25;29.25;;;;;20.59;70.22;101295.44;5101653;27;46263;-66
2022/06/04 08:41:52;;;;;;;;;32.25;29.50;;;;;20.65;70.41;101293.19;5086110;27;45425;-66
2022/06/04 08:44:27;;;;;;;;;34.75;29.75;;;;;20.75;70.11;101294.84;5080934;28;45353;-66
2022/06/04 08:47:01;;;;;;;;;37.50;31.25;;;;;20.85;70.32;101298.38;5081525;27;45489;-65
2022/06/04 08:49:29;;;;;;;;;34.25;30.25;;;;;20.94;70.00;101306.53;5083414;27;45369;-66
2022/06/04 08:51:57;;;;;;;;;31.50;27.75;;;;;20.98;70.10;101295.38;5101508;27;45397;-66
2022/06/04 09:00:04;;;;;;;;;31.75;30.50;;;;;21.17;69.48;101298.03;5097260;27;45486;-65
2022/06/04 09:03:11;;;;;;;;;34.25;30.00;;;;;21.29;69.65;101300.53;5108074;27;45509;-65
2022/06/04 09:06:13;;;;;;;;;33.00;30.25;;;;;21.36;69.57;101307.00;5087240;27;45304;-66
2022/06/04 09:09:07;;;;;;;;;32.25;30.50;;;;;21.40;69.14;101313.75;5100529;27;45537;-66
2022/06/04 09:11:39;;;;;;;;;42.50;33.50;;;;;21.44;69.14;101304.44;5105545;27;45432;-66
2022/06/04 09:14:24;;;;;;;;;39.75;32.50;;;;;21.49;69.03;101320.94;5088840;27;45321;-69
2022/06/04 09:16:59;;;;;;;;;36.25;30.75;;;;;21.56;69.22;101327.34;5095940;27;45274;-71
2022/06/04 09:19:32;;;;;;;;;28.25;25.50;;;;;21.63;69.29;101330.28;5101335;27;45265;-71
2022/06/04 09:21:58;;;;;;;;;32.25;29.50;;;;;21.69;68.90;101327.03;5104832;27;46115;-70
2022/06/04 09:24:25;;;;;;;;;27.25;27.00;;;;;21.76;68.82;101327.28;5107194;27;45200;-70
2022/06/04 09:27:21;;;;;;;;;30.00;29.25;;;;;21.86;68.60;101320.03;5103981;27;45396;-69
2022/06/04 09:29:49;;;;;;;;;27.75;25.75;;;;;21.99;68.78;101323.19;5101364;27;45421;-70
2022/06/04 09:32:44;;;;;;;;;28.00;26.75;;;;;22.09;68.21;101315.09;5108809;27;45339;-68
2022/06/04 09:35:21;;;;;;;;;33.50;30.50;;;;;22.19;68.00;101324.78;5106189;27;45327;-70
2022/06/04 09:37:49;;;;;;;;;31.00;29.50;;;;;22.27;68.20;101326.69;5111288;27;45223;-68
2022/06/04 09:40:34;;;;;;;;;30.75;25.75;;;;;22.36;67.90;101320.44;5110564;27;45362;-67
2022/06/04 09:43:12;;;;;;;;;27.50;24.50;;;;;22.43;68.05;101313.44;5107018;27;45391;-68
2022/06/04 09:45:38;;;;;;;;;22.50;22.50;;;;;22.53;67.45;101318.75;5076078;27;45373;-67
2022/06/04 09:48:19;;;;;;;;;25.00;22.75;;;;;22.64;67.49;101310.44;5104910;27;45431;-68
2022/06/04 09:50:52;;;;;;;;;26.75;24.00;;;;;22.74;67.40;101299.59;5104567;27;45154;-67
2022/06/04 09:53:26;;;;;;;;;26.25;25.50;;;;;22.83;67.25;101302.19;5104057;27;45398;-67
2022/06/04 09:55:58;;;;;;;;;22.25;19.25;;;;;22.94;66.79;101314.56;5086191;27;45463;-68
2022/06/04 09:58:30;;;;;;;;;21.75;21.50;;;;;23.01;66.59;101312.09;5104881;27;45314;-67
2022/06/04 10:01:03;;;;;;;;;18.50;17.50;;;;;23.11;66.72;101313.66;5105097;27;45386;-68
2022/06/04 10:03:32;;;;;;;;;18.75;17.25;;;;;23.20;66.19;101306.47;5086071;27;46521;-67
2022/06/04 10:06:03;;;;;;;;;18.50;16.50;;;;;23.29;65.75;101312.75;5102040;27;45461;-68
2022/06/04 10:08:29;;;;;;;;;23.00;17.50;;;;;23.37;65.81;101304.72;5103296;27;45313;-68
2022/06/04 10:11:02;;;;;;;;;23.00;16.75;;;;;23.47;65.83;101304.63;5104441;27;45257;-67
2022/06/04 10:13:43;;;;;;;;;18.50;16.75;;;;;23.57;65.29;101308.03;5104449;27;45344;-68
2022/06/04 10:16:19;;;;;;;;;21.25;16.00;;;;;23.67;64.81;101314.97;5104472;27;45310;-67
2022/06/04 10:19:00;;;;;;;;;19.75;17.50;;;;;23.76;64.76;101306.94;5104303;27;45383;-67
2022/06/04 10:21:36;;;;;;;;;11.25;11.25;;;;;23.87;64.80;101318.25;5104232;27;45413;-68
2022/06/04 10:24:19;;;;;;;;;16.50;14.75;;;;;23.97;64.10;101309.19;5103987;27;46308;-67
2022/06/04 10:26:50;;;;;;;;;10.50;9.25;;;;;24.07;64.05;101307.19;5104074;27;45328;-68
2022/06/04 10:29:43;;;;;;;;;12.00;12.00;;;;;24.16;63.88;101306.19;5104463;27;45213;-67
2022/06/04 10:32:12;;;;;;;;;9.25;9.25;;;;;24.27;63.46;101294.28;5104239;27;45541;-67
2022/06/04 10:34:56;;;;;;;;;12.00;10.75;;;;;24.34;63.41;101296.19;5104038;27;46031;-67
2022/06/04 10:37:56;;;;;;;;;12.00;12.00;;;;;24.46;63.15;101291.28;5104500;27;45209;-67
2022/06/04 10:40:31;;;;;;;;;11.75;10.75;;;;;24.59;62.76;101296.19;5103900;27;45276;-67
2022/06/04 10:43:21;;;;;;;;;10.75;10.75;;;;;24.69;62.08;101292.31;5104247;27;45326;-67
2022/06/04 10:45:49;;;;;;;;;11.50;11.25;;;;;24.78;62.07;101295.84;5104090;27;46055;-67
2022/06/04 10:48:46;;;;;;;;;11.50;10.00;;;;;24.85;61.82;101286.06;5104000;27;45364;-67
2022/06/04 10:51:27;;;;;;;;;12.50;11.25;;;;;24.91;61.17;101290.78;5103811;27;45284;-67
2022/06/04 10:53:52;;;;;;;;;12.00;10.25;;;;;25.01;61.23;101299.50;5104203;27;45320;-67
2022/06/04 10:56:28;;;;;;;;;11.00;10.00;;;;;25.10;60.81;101289.56;5103620;27;46430;-67
2022/06/04 10:59:04;;;;;;;;;21.25;17.75;;;;;25.22;60.42;101277.41;5102785;27;45204;-67
2022/06/04 11:01:40;;;;;;;;;11.00;11.00;;;;;25.33;60.36;101284.28;5103387;27;45311;-67
2022/06/04 11:04:11;;;;;;;;;11.25;9.25;;;;;25.39;59.92;101286.28;5103789;27;45437;-67
2022/06/04 11:06:41;;;;;;;;;11.25;11.25;;;;;25.46;59.75;101279.19;5103572;27;45295;-67
2022/06/04 11:09:21;;;;;;;;;12.25;10.75;;;;;25.53;59.35;101276.63;5103486;27;45406;-67
2022/06/04 11:11:54;;;;;;;;;11.00;10.00;;;;;25.60;59.33;101280.31;5103639;27;45327;-67
2022/06/04 11:14:35;;;;;;;;;12.25;11.75;;;;;25.63;58.95;101273.72;5081889;28;45306;-67
2022/06/04 11:17:11;;;;;;;;;11.00;11.00;;;;;25.71;58.54;101277.25;5097033;27;45449;-67
2022/06/04 11:19:52;;;;;;;;;10.50;10.50;;;;;25.77;58.26;101273.84;5103177;27;45168;-67
2022/06/04 11:22:43;;;;;;;;;12.25;11.00;;;;;25.79;58.06;101276.34;5103742;27;45394;-68
2022/06/04 11:25:28;;;;;;;;;14.75;12.75;;;;;25.87;57.90;101263.66;5103212;27;45322;-67
2022/06/04 11:28:03;;;;;;;;;11.75;11.75;;;;;25.97;57.88;101266.13;5103111;27;46115;-68
2022/06/04 11:30:54;;;;;;;;;11.50;11.00;;;;;26.05;57.67;101263.34;5103119;27;45294;-67
2022/06/04 11:33:58;;;;;;;;;12.50;11.50;;;;;26.13;57.06;101260.59;5103410;27;45301;-67
2022/06/04 11:36:51;;;;;;;;;12.50;12.00;;;;;26.21;57.17;101246.19;5103050;27;45480;-67
2022/06/04 11:39:33;;;;;;;;;12.00;10.75;;;;;26.30;56.92;101247.81;5102912;27;45410;-67
2022/06/04 11:42:15;;;;;;;;;9.50;9.25;;;;;26.38;56.71;101252.31;5102863;27;45407;-67
2022/06/04 11:44:46;;;;;;;;;12.25;9.75;;;;;26.43;56.49;101244.53;5103209;27;45318;-67